createdAt,value
2022-09-23T00:01:09.639Z,3.11
2022-09-23T00:03:38.866Z,3.13
2022-09-23T00:06:08.543Z,3.15
2022-09-23T00:08:35.210Z,3.19
2022-09-23T00:11:10.551Z,3.13
2022-09-23T00:13:39.179Z,3.09
2022-09-23T00:16:08.092Z,3.03
2022-09-23T00:18:34.648Z,2.96
2022-09-23T00:21:10.872Z,2.86
2022-09-23T00:23:38.488Z,2.75
2022-09-23T00:26:07.619Z,2.64
2022-09-23T00:28:35.154Z,2.49
2022-09-23T00:31:06.924Z,2.31
2022-09-23T00:33:33.531Z,2.13
2022-09-23T00:36:01.930Z,1.99
2022-09-23T00:38:28.578Z,1.82
2022-09-23T00:40:55.198Z,1.79
2022-09-23T00:43:40.932Z,1.88
2022-09-23T00:46:14.286Z,1.98
2022-09-23T00:48:43.956Z,2.14
2022-09-23T00:51:17.883Z,2.23
2022-09-23T00:53:47.004Z,2.37
2022-09-23T00:56:14.326Z,2.45
2022-09-23T00:58:43.287Z,2.47
2022-09-23T01:01:11.943Z,2.47
2022-09-23T01:03:38.534Z,2.47
2022-09-23T01:06:05.624Z,2.47
2022-09-23T01:08:32.292Z,2.45
2022-09-23T01:11:10.120Z,2.40
2022-09-23T01:13:36.646Z,2.35
2022-09-23T01:16:31.410Z,2.33
2022-09-23T01:19:32.234Z,2.32
2022-09-23T01:22:05.424Z,2.24
2022-09-23T01:24:46.094Z,2.26
2022-09-23T01:27:41.560Z,2.30
2022-09-23T01:30:11.836Z,2.31
2022-09-23T01:33:01.379Z,2.36
2022-09-23T01:35:37.725Z,2.36
2022-09-23T01:38:13.070Z,2.35
2022-09-23T01:41:09.900Z,2.30
2022-09-23T01:43:58.063Z,2.31
2022-09-23T01:46:29.810Z,2.28
2022-09-23T01:49:22.116Z,2.33
2022-09-23T01:52:01.534Z,2.34
2022-09-23T01:54:42.313Z,2.35
2022-09-23T01:57:18.872Z,2.35
2022-09-23T01:59:55.856Z,2.39
2022-09-23T02:02:35.450Z,2.43
2022-09-23T02:05:18.330Z,2.46
2022-09-23T02:07:58.021Z,2.43
2022-09-23T02:10:31.041Z,2.45
2022-09-23T02:13:05.479Z,2.44
2022-09-23T02:15:36.899Z,2.40
2022-09-23T02:18:17.911Z,2.40
2022-09-23T02:20:44.976Z,2.43
2022-09-23T02:23:23.426Z,2.48
2022-09-23T02:26:08.824Z,2.50
2022-09-23T02:29:08.348Z,2.53
2022-09-23T02:31:45.769Z,2.60
2022-09-23T02:34:42.560Z,2.64
2022-09-23T02:37:37.178Z,2.65
2022-09-23T02:40:26.289Z,2.65
2022-09-23T02:43:19.789Z,2.65
2022-09-23T02:45:47.439Z,2.64
2022-09-23T02:48:18.724Z,2.72
2022-09-23T02:50:47.760Z,2.71
2022-09-23T02:53:16.174Z,2.71
2022-09-23T02:55:43.526Z,2.64
2022-09-23T02:58:13.840Z,2.65
2022-09-23T03:00:59.032Z,2.70
2022-09-23T03:03:45.148Z,2.72
2022-09-23T03:06:39.782Z,2.82
2022-09-23T03:09:13.272Z,2.84
2022-09-23T03:11:48.158Z,2.83
2022-09-23T03:14:25.592Z,2.72
2022-09-23T03:16:52.107Z,2.70
2022-09-23T03:19:23.545Z,2.67
2022-09-23T03:22:08.160Z,2.65
2022-09-23T03:24:38.135Z,2.58
2022-09-23T03:27:13.706Z,2.50
2022-09-23T03:29:45.609Z,2.52
2022-09-23T03:32:14.612Z,2.52
2022-09-23T03:34:43.859Z,2.50
2022-09-23T03:37:19.868Z,2.43
2022-09-23T03:40:15.003Z,2.41
2022-09-23T03:42:42.324Z,2.38
2022-09-23T03:45:14.623Z,2.38
2022-09-23T03:47:42.280Z,2.41
2022-09-23T03:50:09.283Z,2.45
2022-09-23T03:52:35.818Z,2.47
2022-09-23T03:55:02.408Z,2.47
2022-09-23T03:57:28.944Z,2.44
2022-09-23T03:59:55.509Z,2.39
2022-09-23T04:02:22.128Z,2.35
2022-09-23T04:04:48.844Z,2.32
2022-09-23T04:07:15.663Z,2.25
2022-09-23T04:09:42.299Z,2.20
2022-09-23T04:12:13.435Z,2.15
2022-09-23T04:14:40.062Z,2.12
2022-09-23T04:17:06.620Z,2.11
2022-09-23T04:19:33.177Z,2.12
2022-09-23T04:21:59.874Z,2.11
2022-09-23T04:24:26.554Z,2.13
2022-09-23T04:26:55.257Z,2.09
2022-09-23T04:29:22.583Z,2.05
2022-09-23T04:31:50.046Z,1.98
2022-09-23T04:34:17.698Z,1.95
2022-09-23T04:36:45.332Z,1.84
2022-09-23T04:39:12.566Z,1.80
2022-09-23T04:41:39.084Z,1.76
2022-09-23T04:44:05.651Z,1.74
2022-09-23T04:46:32.407Z,1.77
2022-09-23T04:48:58.995Z,1.76
2022-09-23T04:51:26.940Z,1.82
2022-09-23T04:53:55.052Z,1.84
2022-09-23T04:56:26.821Z,1.82
2022-09-23T04:58:54.263Z,1.82
2022-09-23T05:01:27.118Z,1.83
2022-09-23T05:04:01.556Z,1.80
2022-09-23T05:06:29.697Z,1.89
2022-09-23T05:08:58.278Z,2.07
2022-09-23T05:11:25.750Z,2.15
2022-09-23T05:13:54.093Z,2.24
2022-09-23T05:16:25.615Z,2.39
2022-09-23T05:18:52.718Z,2.54
2022-09-23T05:21:21.845Z,2.67
2022-09-23T05:23:58.799Z,2.79
2022-09-23T05:26:28.117Z,2.96
2022-09-23T05:28:55.178Z,3.09
2022-09-23T05:31:24.665Z,3.25
2022-09-23T05:33:53.494Z,3.39
2022-09-23T05:36:22.093Z,3.52
2022-09-23T05:38:50.065Z,3.69
2022-09-23T05:41:17.794Z,3.82
2022-09-23T05:43:44.743Z,3.97
2022-09-23T05:46:23.372Z,4.13
2022-09-23T05:48:50.436Z,4.25
2022-09-23T05:51:20.080Z,4.40
2022-09-23T05:53:47.856Z,4.53
2022-09-23T05:56:16.708Z,4.68
2022-09-23T05:58:44.103Z,4.74
2022-09-23T06:01:12.869Z,4.88
2022-09-23T06:03:40.030Z,5.00
2022-09-23T06:06:11.964Z,5.11
2022-09-23T06:08:38.876Z,5.23
2022-09-23T06:11:07.667Z,5.36
2022-09-23T06:13:39.005Z,5.39
2022-09-23T06:16:08.040Z,5.44
2022-09-23T06:18:35.541Z,5.59
2022-09-23T06:21:03.779Z,5.68
2022-09-23T06:23:31.306Z,5.84
2022-09-23T06:26:02.475Z,5.92
2022-09-23T06:28:33.863Z,5.94
2022-09-23T06:31:03.247Z,6.00
2022-09-23T06:33:36.812Z,6.16
2022-09-23T06:36:06.347Z,6.18
2022-09-23T06:38:36.262Z,6.29
2022-09-23T06:41:03.485Z,6.46
2022-09-23T06:43:30.880Z,6.54
2022-09-23T06:46:00.003Z,6.57
2022-09-23T06:48:27.816Z,6.64
2022-09-23T06:50:58.402Z,6.63
2022-09-23T06:53:25.545Z,6.71
2022-09-23T06:56:03.768Z,6.75
2022-09-23T06:58:31.952Z,6.85
2022-09-23T07:01:03.131Z,6.94
2022-09-23T07:03:29.842Z,7.02
2022-09-23T07:05:56.609Z,7.17
2022-09-23T07:08:24.883Z,7.36
2022-09-23T07:10:53.067Z,7.45
2022-09-23T07:13:19.650Z,7.40
2022-09-23T07:15:53.796Z,7.69
2022-09-23T07:18:23.829Z,7.77
2022-09-23T07:20:50.935Z,7.83
2022-09-23T07:23:17.948Z,8.05
2022-09-23T07:25:46.768Z,8.12
2022-09-23T07:28:13.692Z,8.22
2022-09-23T07:30:49.172Z,8.33
2022-09-23T07:33:30.830Z,8.58
2022-09-23T07:35:58.582Z,8.55
2022-09-23T07:38:30.366Z,8.41
2022-09-23T07:41:11.134Z,8.47
2022-09-23T07:43:37.875Z,8.50
2022-09-23T07:46:08.728Z,8.64
2022-09-23T07:48:36.345Z,8.82
2022-09-23T07:51:29.060Z,8.96
2022-09-23T07:53:59.109Z,9.13
2022-09-23T07:56:28.006Z,9.17
2022-09-23T07:59:00.805Z,9.38
2022-09-23T08:01:48.706Z,9.59
2022-09-23T08:04:17.862Z,9.78
2022-09-23T08:06:47.533Z,9.92
2022-09-23T08:09:16.460Z,9.86
2022-09-23T08:11:42.978Z,10.07
2022-09-23T08:14:12.691Z,10.03
2022-09-23T08:16:40.154Z,10.03
2022-09-23T08:19:08.037Z,10.10
2022-09-23T08:21:35.256Z,10.05
2022-09-23T08:24:02.112Z,10.12
2022-09-23T08:26:28.839Z,10.14
2022-09-23T08:28:56.498Z,10.25
2022-09-23T08:31:23.684Z,10.04
2022-09-23T08:33:58.123Z,10.32
2022-09-23T08:36:25.810Z,10.65
2022-09-23T08:38:52.590Z,10.66
2022-09-23T08:41:37.732Z,10.36
2022-09-23T08:44:27.222Z,10.90
2022-09-23T08:47:04.953Z,11.25
2022-09-23T08:49:36.792Z,11.41
2022-09-23T08:52:40.275Z,11.52
2022-09-23T08:55:12.843Z,11.71
2022-09-23T08:57:57.510Z,11.74
2022-09-23T09:00:42.099Z,11.40
2022-09-23T09:03:21.335Z,11.52
2022-09-23T09:05:54.226Z,11.91
2022-09-23T09:08:31.338Z,11.91
2022-09-23T09:10:58.362Z,12.18
2022-09-23T09:13:43.252Z,12.40
2022-09-23T09:16:59.065Z,12.46
2022-09-23T09:19:52.573Z,12.40
2022-09-23T09:25:39.847Z,12.61
2022-09-23T09:28:15.954Z,13.01
2022-09-23T09:30:48.341Z,13.18
2022-09-23T09:33:18.942Z,13.40
2022-09-23T09:35:45.862Z,13.02
2022-09-23T09:38:13.088Z,13.18
2022-09-23T09:40:46.204Z,13.76
2022-09-23T09:43:26.048Z,13.93
2022-09-23T09:46:36.382Z,14.25
2022-09-23T09:49:11.878Z,14.64
2022-09-23T09:51:42.627Z,14.53
2022-09-23T09:54:27.365Z,14.71
2022-09-23T09:56:54.944Z,14.56
2022-09-23T09:59:28.728Z,14.36
2022-09-23T10:02:28.121Z,14.61
2022-09-23T10:05:03.584Z,14.74
2022-09-23T10:07:32.410Z,14.87
2022-09-23T10:10:31.882Z,14.99
2022-09-23T10:13:16.172Z,15.16
2022-09-23T10:15:44.936Z,15.01
2022-09-23T10:18:29.062Z,14.87
2022-09-23T10:21:15.844Z,14.73
2022-09-23T10:23:45.570Z,14.67
2022-09-23T10:26:17.446Z,14.53
2022-09-23T10:28:55.650Z,14.86
2022-09-23T10:31:26.365Z,15.33
2022-09-23T10:33:57.239Z,15.52
2022-09-23T10:36:23.753Z,15.78
2022-09-23T10:39:16.652Z,15.81
2022-09-23T10:42:23.126Z,15.95
2022-09-23T10:45:39.855Z,16.37
2022-09-23T10:48:27.531Z,16.04
2022-09-23T10:50:57.553Z,15.40
2022-09-23T10:53:26.059Z,15.65
2022-09-23T10:56:19.707Z,15.83
2022-09-23T10:59:05.133Z,15.36
2022-09-23T11:01:48.197Z,14.79
2022-09-23T11:04:17.425Z,14.70
2022-09-23T11:07:02.369Z,14.96
2022-09-23T11:09:47.617Z,15.06
2022-09-23T11:12:38.431Z,15.55
2022-09-23T11:15:33.585Z,15.90
2022-09-23T11:18:22.117Z,15.80
2022-09-23T11:20:51.573Z,15.25
2022-09-23T11:23:37.075Z,15.38
2022-09-23T11:26:09.726Z,15.65
2022-09-23T11:29:04.121Z,15.27
2022-09-23T11:31:59.752Z,15.52
2022-09-23T11:34:26.524Z,15.33
2022-09-23T11:37:01.274Z,15.84
2022-09-23T11:40:17.757Z,16.10
2022-09-23T11:43:11.189Z,16.03
2022-09-23T11:45:45.165Z,15.83
2022-09-23T11:48:20.491Z,16.01
2022-09-23T11:50:55.198Z,16.17
2022-09-23T11:53:32.376Z,16.04
2022-09-23T11:56:31.761Z,16.12
2022-09-23T11:59:15.942Z,16.05
2022-09-23T12:01:49.776Z,15.93
2022-09-23T12:04:42.974Z,15.49
2022-09-23T12:07:26.039Z,15.22
2022-09-23T12:10:06.683Z,15.23
2022-09-23T12:13:19.258Z,15.10
2022-09-23T12:16:03.301Z,14.49
2022-09-23T12:18:39.294Z,14.03
2022-09-23T12:21:51.912Z,13.91
2022-09-23T12:24:34.865Z,14.07
2022-09-23T12:27:08.067Z,14.51
2022-09-23T12:29:36.441Z,14.95
2022-09-23T12:32:09.977Z,15.16
2022-09-23T12:34:41.874Z,15.50
2022-09-23T12:37:08.445Z,15.67
2022-09-23T12:39:38.590Z,15.71
2022-09-23T12:42:12.253Z,15.57
2022-09-23T12:44:42.077Z,14.95
2022-09-23T12:47:14.374Z,14.49
2022-09-23T12:49:44.354Z,14.30
2022-09-23T12:52:10.814Z,14.26
2022-09-23T12:54:41.512Z,14.53
2022-09-23T12:57:31.940Z,14.93
2022-09-23T13:00:18.664Z,14.68
2022-09-23T13:03:08.127Z,14.65
2022-09-23T13:06:05.988Z,14.62
2022-09-23T13:08:36.710Z,14.50
2022-09-23T13:11:07.161Z,14.92
2022-09-23T13:13:43.443Z,14.74
2022-09-23T13:16:25.196Z,14.68
2022-09-23T13:18:57.151Z,14.68
2022-09-23T13:21:42.184Z,14.96
2022-09-23T13:24:18.583Z,15.02
2022-09-23T13:26:48.273Z,15.18
2022-09-23T13:29:23.992Z,15.30
2022-09-23T13:31:50.848Z,15.19
2022-09-23T13:34:21.456Z,15.17
2022-09-23T13:36:49.032Z,15.29
2022-09-23T13:39:26.911Z,15.31
2022-09-23T13:42:00.890Z,15.23
2022-09-23T13:44:28.565Z,15.01
2022-09-23T13:47:00.550Z,14.72
2022-09-23T13:49:29.859Z,14.23
2022-09-23T13:51:57.314Z,14.54
2022-09-23T13:54:48.851Z,14.14
2022-09-23T13:57:27.468Z,14.13
2022-09-23T13:59:54.079Z,14.04
2022-09-23T14:02:20.735Z,13.50
2022-09-23T14:04:47.418Z,13.27
2022-09-23T14:07:16.831Z,13.51
2022-09-23T14:09:48.307Z,13.46
2022-09-23T14:12:21.837Z,13.42
2022-09-23T14:14:51.664Z,13.45
2022-09-23T14:17:22.832Z,13.46
2022-09-23T14:19:50.379Z,13.19
2022-09-23T14:22:28.169Z,13.00
2022-09-23T14:24:56.365Z,13.12
2022-09-23T14:27:33.789Z,13.14
2022-09-23T14:30:02.733Z,12.90
2022-09-23T14:32:30.413Z,12.86
2022-09-23T14:35:00.125Z,12.91
2022-09-23T14:37:57.102Z,12.80
2022-09-23T14:40:28.731Z,12.96
2022-09-23T14:43:16.522Z,13.23
2022-09-23T14:45:50.518Z,13.25
2022-09-23T14:48:22.327Z,13.23
2022-09-23T14:51:16.199Z,12.94
2022-09-23T14:53:48.735Z,12.89
2022-09-23T14:56:20.455Z,12.96
2022-09-23T14:59:00.714Z,12.87
2022-09-23T15:01:33.289Z,12.78
2022-09-23T15:04:14.882Z,12.91
2022-09-23T15:06:47.702Z,13.09
2022-09-23T15:09:23.565Z,12.98
2022-09-23T15:11:59.208Z,12.98
2022-09-23T15:14:37.649Z,12.68
2022-09-23T15:17:13.424Z,12.84
2022-09-23T15:19:40.500Z,12.78
2022-09-23T15:22:08.894Z,12.75
2022-09-23T15:24:45.558Z,12.81
2022-09-23T15:27:22.501Z,12.81
2022-09-23T15:29:50.123Z,12.71
2022-09-23T15:32:16.853Z,12.67
2022-09-23T15:34:43.351Z,12.73
2022-09-23T15:37:12.514Z,12.70
2022-09-23T15:39:39.039Z,12.56
2022-09-23T15:42:07.380Z,12.61
2022-09-23T15:44:36.317Z,12.40
2022-09-23T15:47:03.002Z,12.18
2022-09-23T15:49:34.541Z,12.06
2022-09-23T15:52:02.090Z,11.95
2022-09-23T15:54:29.505Z,11.94
2022-09-23T15:56:58.636Z,11.83
2022-09-23T15:59:25.157Z,11.80
2022-09-23T16:01:52.835Z,11.77
2022-09-23T16:04:19.609Z,11.54
2022-09-23T16:06:48.091Z,11.24
2022-09-23T16:09:15.694Z,11.08
2022-09-23T16:11:48.384Z,10.82
2022-09-23T16:14:16.881Z,10.52
2022-09-23T16:16:46.140Z,10.27
2022-09-23T16:19:12.773Z,10.14
2022-09-23T16:21:40.923Z,10.04
2022-09-23T16:24:18.644Z,9.82
2022-09-23T16:26:47.148Z,9.56
2022-09-23T16:29:13.778Z,9.38
2022-09-23T16:31:40.528Z,9.21
2022-09-23T16:34:07.207Z,8.96
2022-09-23T16:36:43.037Z,8.84
2022-09-23T16:39:12.590Z,8.77
2022-09-23T16:41:40.147Z,8.75
2022-09-23T16:44:09.349Z,8.69
2022-09-23T16:46:36.423Z,8.60
2022-09-23T16:49:03.233Z,8.51
2022-09-23T16:51:37.951Z,8.45
2022-09-23T16:54:11.412Z,8.40
2022-09-23T16:56:43.922Z,8.34
2022-09-23T16:59:12.319Z,8.27
2022-09-23T17:01:57.450Z,8.23
2022-09-23T17:04:24.027Z,8.23
2022-09-23T17:06:52.528Z,8.24
2022-09-23T17:09:24.856Z,8.17
2022-09-23T17:12:35.090Z,8.09
2022-09-23T17:15:06.207Z,8.03
2022-09-23T17:17:37.524Z,8.00
2022-09-23T17:20:05.871Z,7.96
2022-09-23T17:22:33.796Z,8.03
2022-09-23T17:25:02.906Z,7.93
2022-09-23T17:27:29.933Z,7.88
2022-09-23T17:29:56.421Z,7.98
2022-09-23T17:32:22.983Z,7.88
2022-09-23T17:34:49.501Z,7.81
2022-09-23T17:37:16.044Z,7.82
2022-09-23T17:39:42.637Z,7.73
2022-09-23T17:42:09.659Z,7.61
2022-09-23T17:44:36.299Z,7.56
2022-09-23T17:47:03.759Z,7.52
2022-09-23T17:49:35.310Z,7.53
2022-09-23T17:52:05.669Z,7.50
2022-09-23T17:54:32.688Z,7.53
2022-09-23T17:56:59.867Z,7.50
2022-09-23T17:59:26.751Z,7.51
2022-09-23T18:01:53.992Z,7.47
2022-09-23T18:04:20.983Z,7.44
2022-09-23T18:06:47.678Z,7.40
2022-09-23T18:09:14.799Z,7.35
2022-09-23T18:11:44.261Z,7.32
2022-09-23T18:14:16.461Z,7.26
2022-09-23T18:16:45.592Z,7.22
2022-09-23T18:19:14.447Z,7.24
2022-09-23T18:21:45.502Z,7.22
2022-09-23T18:27:00.013Z,7.07
2022-09-23T18:29:26.722Z,6.98
2022-09-23T18:31:53.420Z,6.95
2022-09-23T18:34:20.414Z,6.92
2022-09-23T18:36:47.090Z,6.91
2022-09-23T18:39:13.657Z,6.95
2022-09-23T18:41:40.960Z,6.95
2022-09-23T18:44:07.562Z,6.94
2022-09-23T18:46:34.153Z,6.95
2022-09-23T18:49:18.999Z,6.93
2022-09-23T18:51:50.968Z,6.88
2022-09-23T18:54:18.379Z,6.85
2022-09-23T18:56:46.336Z,6.85
2022-09-23T18:59:16.642Z,6.85
2022-09-23T19:01:45.742Z,6.79
2022-09-23T19:04:14.154Z,6.73
2022-09-23T19:06:41.111Z,6.74
2022-09-23T19:09:07.735Z,6.75
2022-09-23T19:11:38.083Z,6.75
2022-09-23T19:14:07.385Z,6.73
2022-09-23T19:16:36.029Z,6.68
2022-09-23T19:19:04.616Z,6.68
2022-09-23T19:21:32.512Z,6.60
2022-09-23T19:24:03.418Z,6.56
2022-09-23T19:26:33.625Z,6.56
2022-09-23T19:29:02.178Z,6.51
2022-09-23T19:31:33.279Z,6.49
2022-09-23T19:34:10.070Z,6.47
2022-09-23T19:36:38.880Z,6.43
2022-09-23T19:39:08.803Z,6.38
2022-09-23T19:41:35.519Z,6.34
2022-09-23T19:44:03.526Z,6.31
2022-09-23T19:46:33.893Z,6.30
2022-09-23T19:49:00.836Z,6.32
2022-09-23T19:51:28.337Z,6.27
2022-09-23T19:53:54.930Z,6.27
2022-09-23T19:56:21.793Z,6.22
2022-09-23T19:58:54.299Z,6.17
2022-09-23T20:01:21.613Z,6.21
2022-09-23T20:03:48.983Z,6.23
2022-09-23T20:06:16.845Z,6.22
2022-09-23T20:08:44.520Z,6.23
2022-09-23T20:11:14.306Z,6.15
2022-09-23T20:13:43.945Z,6.07
2022-09-23T20:16:13.361Z,5.99
2022-09-23T20:18:40.705Z,5.94
2022-09-23T20:21:09.742Z,5.93
2022-09-23T20:23:36.405Z,5.85
2022-09-23T20:26:23.128Z,5.76
2022-09-23T20:28:50.222Z,5.73
2022-09-23T20:31:18.519Z,5.76
2022-09-23T20:33:46.165Z,5.84
2022-09-23T20:36:13.461Z,5.82
2022-09-23T20:38:40.570Z,5.72
2022-09-23T20:41:09.364Z,5.72
2022-09-23T20:43:35.848Z,5.75
2022-09-23T20:46:04.115Z,5.70
2022-09-23T20:48:31.150Z,5.65
2022-09-23T20:51:05.248Z,5.65
2022-09-23T20:53:32.614Z,5.63
2022-09-23T20:55:59.742Z,5.66
2022-09-23T20:58:29.188Z,5.66
2022-09-23T21:01:12.368Z,5.63
2022-09-23T21:03:41.628Z,5.56
2022-09-23T21:06:09.218Z,5.51
2022-09-23T21:08:37.272Z,5.51
2022-09-23T21:11:06.424Z,5.47
2022-09-23T21:13:33.562Z,5.42
2022-09-23T21:16:04.933Z,5.41
2022-09-23T21:18:32.110Z,5.44
2022-09-23T21:21:00.125Z,5.42
2022-09-23T21:23:29.858Z,5.38
2022-09-23T21:26:13.907Z,5.31
2022-09-23T21:28:41.762Z,5.32
2022-09-23T21:31:22.472Z,5.37
2022-09-23T21:33:57.095Z,5.30
2022-09-23T21:36:24.680Z,5.33
2022-09-23T21:38:52.517Z,5.35
2022-09-23T21:41:19.776Z,5.35
2022-09-23T21:43:46.421Z,5.41
2022-09-23T21:46:14.908Z,5.43
2022-09-23T21:48:42.862Z,5.44
2022-09-23T21:51:17.522Z,5.54
2022-09-23T21:53:44.679Z,5.56
2022-09-23T21:56:15.695Z,5.51
2022-09-23T21:58:45.791Z,5.48
2022-09-23T22:01:17.043Z,5.50
2022-09-23T22:03:44.959Z,5.49
2022-09-23T22:06:21.501Z,5.42
2022-09-23T22:08:59.010Z,5.47
2022-09-23T22:11:46.658Z,5.40
2022-09-23T22:14:14.376Z,5.29
2022-09-23T22:16:41.838Z,5.24
2022-09-23T22:19:09.819Z,5.25
2022-09-23T22:21:38.136Z,5.18
2022-09-23T22:24:07.463Z,5.06
2022-09-23T22:26:44.484Z,5.00
2022-09-23T22:29:34.358Z,5.01
2022-09-23T22:32:20.702Z,5.03
2022-09-23T22:34:51.453Z,5.02
2022-09-23T22:37:28.727Z,5.08
2022-09-23T22:39:55.254Z,5.06
2022-09-23T22:42:22.457Z,5.08
2022-09-23T22:44:50.136Z,5.07
2022-09-23T22:47:18.026Z,4.99
2022-09-23T22:49:46.338Z,4.87
2022-09-23T22:52:14.122Z,4.82
2022-09-23T22:54:40.667Z,4.76
2022-09-23T22:57:09.054Z,4.66
2022-09-23T22:59:37.403Z,4.67
2022-09-23T23:02:05.049Z,4.65
2022-09-23T23:04:31.798Z,4.61
2022-09-23T23:06:58.896Z,4.60
2022-09-23T23:09:25.957Z,4.62
2022-09-23T23:11:52.474Z,4.64
2022-09-23T23:14:19.401Z,4.63
2022-09-23T23:16:46.718Z,4.64
2022-09-23T23:19:17.250Z,4.63
2022-09-23T23:21:45.442Z,4.58
2022-09-23T23:24:20.426Z,4.56
2022-09-23T23:26:47.602Z,4.58
2022-09-23T23:29:15.984Z,4.59
2022-09-23T23:31:43.296Z,4.55
2022-09-23T23:34:16.270Z,4.54
2022-09-23T23:36:43.917Z,4.46
2022-09-23T23:39:11.086Z,4.40
2022-09-23T23:41:39.517Z,4.34
2022-09-23T23:44:07.739Z,4.25
2022-09-23T23:46:34.638Z,4.14
2022-09-23T23:49:01.237Z,4.13
2022-09-23T23:51:28.223Z,4.07
2022-09-23T23:53:55.203Z,3.95
2022-09-23T23:56:24.471Z,3.81
2022-09-23T23:58:55.577Z,3.67
